createdAt,value
2022-11-15T00:02:16.773Z,7.80
2022-11-15T00:05:02.235Z,7.80
2022-11-15T00:07:55.465Z,7.80
2022-11-15T00:10:42.077Z,7.80
2022-11-15T00:13:29.255Z,7.70
2022-11-15T00:16:15.043Z,7.70
2022-11-15T00:19:01.479Z,7.70
2022-11-15T00:21:46.926Z,7.70
2022-11-15T00:24:32.678Z,7.70
2022-11-15T00:27:18.317Z,7.70
2022-11-15T00:30:04.452Z,7.70
2022-11-15T00:32:50.357Z,7.60
2022-11-15T00:35:36.190Z,7.70
2022-11-15T00:38:21.626Z,7.70
2022-11-15T00:41:09.850Z,7.70
2022-11-15T00:43:55.958Z,7.70
2022-11-15T00:46:41.516Z,7.60
2022-11-15T00:49:27.205Z,7.70
2022-11-15T00:52:13.218Z,7.50
2022-11-15T00:54:58.954Z,7.60
2022-11-15T00:57:45.698Z,7.60
2022-11-15T01:00:31.373Z,7.60
2022-11-15T01:03:17.279Z,7.60
2022-11-15T01:06:03.345Z,7.60
2022-11-15T01:08:49.371Z,7.60
2022-11-15T01:11:35.074Z,7.50
2022-11-15T01:14:25.205Z,7.50
2022-11-15T01:17:11.018Z,7.50
2022-11-15T01:19:56.341Z,7.50
2022-11-15T01:22:41.587Z,7.50
2022-11-15T01:25:27.128Z,7.50
2022-11-15T01:28:12.361Z,7.50
2022-11-15T01:31:00.950Z,7.50
2022-11-15T01:33:47.582Z,7.40
2022-11-15T01:36:33.254Z,7.40
2022-11-15T01:39:19.104Z,7.40
2022-11-15T01:42:05.535Z,7.40
2022-11-15T01:44:52.830Z,7.40
2022-11-15T01:47:42.045Z,7.40
2022-11-15T01:50:32.567Z,7.30
2022-11-15T01:53:21.407Z,7.30
2022-11-15T01:56:10.825Z,7.30
2022-11-15T01:59:00.120Z,7.30
2022-11-15T02:01:46.185Z,7.30
2022-11-15T02:04:36.435Z,7.20
2022-11-15T02:07:22.908Z,7.30
2022-11-15T02:10:13.305Z,7.20
2022-11-15T02:13:01.276Z,7.20
2022-11-15T02:16:27.749Z,7.20
2022-11-15T02:19:34.108Z,7.20
2022-11-15T02:22:43.963Z,7.20
2022-11-15T02:25:58.339Z,7.20
2022-11-15T02:29:04.901Z,7.20
2022-11-15T02:32:24.432Z,7.10
2022-11-15T02:35:31.362Z,7.10
2022-11-15T02:38:42.018Z,7.10
2022-11-15T02:41:54.768Z,7.10
2022-11-15T02:44:46.345Z,7.10
2022-11-15T02:47:39.859Z,7.00
2022-11-15T02:50:29.542Z,7.00
2022-11-15T02:53:16.459Z,7.00
2022-11-15T02:56:02.251Z,7.00
2022-11-15T02:59:18.752Z,7.00
2022-11-15T03:02:30.723Z,7.00
2022-11-15T03:05:43.435Z,7.00
2022-11-15T03:08:40.115Z,7.00
2022-11-15T03:11:26.270Z,7.00
2022-11-15T03:14:39.140Z,6.90
2022-11-15T03:17:37.828Z,6.90
2022-11-15T03:20:26.002Z,6.90
2022-11-15T03:23:12.286Z,6.90
2022-11-15T03:25:59.501Z,6.90
2022-11-15T03:29:02.437Z,6.80
2022-11-15T03:31:55.814Z,6.90
2022-11-15T03:35:02.873Z,6.80
2022-11-15T03:38:12.799Z,6.80
2022-11-15T03:41:06.002Z,6.80
2022-11-15T03:44:17.612Z,6.80
2022-11-15T03:47:39.829Z,6.80
2022-11-15T03:50:26.089Z,6.80
2022-11-15T03:53:12.645Z,6.80
2022-11-15T03:55:57.817Z,6.80
2022-11-15T03:58:44.128Z,6.80
2022-11-15T04:01:29.432Z,6.80
2022-11-15T04:04:15.501Z,6.80
2022-11-15T04:07:00.907Z,6.80
2022-11-15T04:10:04.402Z,6.70
2022-11-15T04:12:50.106Z,6.80
2022-11-15T04:15:36.144Z,6.80
2022-11-15T04:18:21.906Z,6.80
2022-11-15T04:21:27.576Z,6.70
2022-11-15T04:24:13.149Z,6.70
2022-11-15T04:26:59.807Z,6.70
2022-11-15T04:29:45.355Z,6.70
2022-11-15T04:32:31.135Z,6.70
2022-11-15T04:35:16.350Z,6.70
2022-11-15T04:38:04.412Z,6.70
2022-11-15T04:40:49.880Z,6.70
2022-11-15T04:43:35.773Z,6.80
2022-11-15T04:46:22.291Z,6.70
2022-11-15T04:49:08.102Z,6.70
2022-11-15T04:51:53.427Z,6.70
2022-11-15T04:54:39.275Z,6.70
2022-11-15T04:57:24.630Z,6.70
2022-11-15T05:00:15.129Z,6.70
2022-11-15T05:03:18.988Z,6.70
2022-11-15T05:06:05.280Z,6.70
2022-11-15T05:08:50.557Z,6.70
2022-11-15T05:11:36.528Z,6.70
2022-11-15T05:14:22.075Z,6.70
2022-11-15T05:17:07.678Z,6.70
2022-11-15T05:19:53.486Z,6.70
2022-11-15T05:22:40.369Z,6.70
2022-11-15T05:25:26.350Z,6.70
2022-11-15T05:28:12.507Z,6.70
2022-11-15T05:31:09.958Z,6.60
2022-11-15T05:33:57.604Z,6.70
2022-11-15T05:36:46.596Z,6.70
2022-11-15T05:39:32.611Z,6.70
2022-11-15T05:42:18.424Z,6.70
2022-11-15T05:45:07.670Z,6.70
2022-11-15T05:47:54.935Z,6.70
2022-11-15T05:50:44.956Z,6.70
2022-11-15T05:53:31.819Z,6.70
2022-11-15T05:56:18.183Z,6.70
2022-11-15T05:59:04.107Z,6.70
2022-11-15T06:01:50.477Z,6.70
2022-11-15T06:04:36.119Z,6.70
2022-11-15T06:07:22.437Z,6.70
2022-11-15T06:10:09.132Z,6.80
2022-11-15T06:13:05.855Z,6.80
2022-11-15T06:15:51.479Z,6.70
2022-11-15T06:18:38.815Z,6.80
2022-11-15T06:21:24.568Z,6.80
2022-11-15T06:24:10.929Z,6.80
2022-11-15T06:26:56.394Z,6.90
2022-11-15T06:29:42.220Z,6.90
2022-11-15T06:32:27.726Z,6.90
2022-11-15T06:35:14.380Z,6.90
2022-11-15T06:38:09.664Z,6.90
2022-11-15T06:40:55.162Z,6.90
2022-11-15T06:43:41.617Z,7.00
2022-11-15T06:46:27.336Z,7.00
2022-11-15T06:49:12.618Z,7.00
2022-11-15T06:51:58.310Z,7.00
2022-11-15T06:54:43.554Z,7.00
2022-11-15T06:57:29.071Z,7.10
2022-11-15T07:00:15.266Z,7.10
2022-11-15T07:03:02.047Z,7.20
2022-11-15T07:06:04.242Z,7.20
2022-11-15T07:08:52.669Z,7.20
2022-11-15T07:11:38.082Z,7.30
2022-11-15T07:14:24.072Z,7.30
2022-11-15T07:17:09.350Z,7.40
2022-11-15T07:19:55.410Z,7.40
2022-11-15T07:22:41.959Z,7.50
2022-11-15T07:25:28.181Z,7.50
2022-11-15T07:28:14.121Z,7.60
2022-11-15T07:31:04.103Z,7.70
2022-11-15T07:33:49.735Z,7.80
2022-11-15T07:36:35.970Z,7.90
2022-11-15T07:39:21.070Z,8.10
2022-11-15T07:42:25.675Z,8.40
2022-11-15T07:45:11.185Z,8.70
2022-11-15T07:47:57.851Z,9.00
2022-11-15T07:50:43.576Z,9.40
2022-11-15T07:53:30.108Z,9.70
2022-11-15T07:56:16.100Z,10.10
2022-11-15T07:59:02.048Z,10.70
2022-11-15T08:01:47.785Z,10.90
2022-11-15T08:04:33.829Z,11.30
2022-11-15T08:07:19.356Z,11.70
2022-11-15T08:10:08.245Z,12.10
2022-11-15T08:13:06.170Z,12.50
2022-11-15T08:15:56.421Z,13.00
2022-11-15T08:18:43.120Z,13.40
2022-11-15T08:21:29.446Z,13.80
2022-11-15T08:24:15.286Z,14.20
2022-11-15T08:27:00.982Z,14.70
2022-11-15T08:29:49.144Z,15.20
2022-11-15T08:32:35.236Z,15.50
2022-11-15T08:35:26.262Z,16.00
2022-11-15T08:38:14.380Z,16.40
2022-11-15T08:41:05.694Z,17.00
2022-11-15T08:43:51.294Z,17.30
2022-11-15T08:46:36.748Z,17.70
2022-11-15T08:49:22.470Z,18.20
2022-11-15T08:52:07.779Z,18.60
2022-11-15T08:54:53.692Z,19.10
2022-11-15T08:57:39.263Z,19.50
2022-11-15T09:00:25.409Z,20.00
2022-11-15T09:03:11.025Z,20.50
2022-11-15T09:06:01.902Z,20.90
2022-11-15T09:08:48.389Z,21.30
2022-11-15T09:11:34.301Z,21.80
2022-11-15T09:14:19.885Z,22.10
2022-11-15T09:17:10.094Z,22.50
2022-11-15T09:19:55.474Z,22.80
2022-11-15T09:22:41.543Z,23.10
2022-11-15T09:25:27.745Z,23.40
2022-11-15T09:28:13.603Z,23.80
2022-11-15T09:31:04.418Z,24.10
2022-11-15T09:33:50.387Z,24.50
2022-11-15T09:36:35.927Z,24.80
2022-11-15T09:39:21.981Z,25.10
2022-11-15T09:42:27.119Z,25.40
2022-11-15T09:46:02.155Z,25.60
2022-11-15T09:48:55.424Z,25.90
2022-11-15T09:51:51.046Z,26.30
2022-11-15T09:54:53.223Z,26.60
2022-11-15T09:57:41.193Z,26.80
2022-11-15T10:00:52.705Z,27.10
2022-11-15T10:03:35.276Z,27.30
2022-11-15T10:06:07.016Z,27.50
2022-11-15T10:09:16.467Z,27.70
2022-11-15T10:11:45.206Z,27.90
2022-11-15T10:14:25.497Z,28.10
2022-11-15T10:17:08.347Z,28.30
2022-11-15T10:19:57.104Z,28.40
2022-11-15T10:22:40.241Z,28.60
2022-11-15T10:25:10.434Z,28.70
2022-11-15T10:27:37.530Z,28.80
2022-11-15T10:30:12.814Z,28.90
2022-11-15T10:32:42.979Z,29.00
2022-11-15T10:35:28.307Z,29.10
2022-11-15T10:38:12.931Z,29.30
2022-11-15T10:40:42.071Z,29.50
2022-11-15T10:43:11.864Z,29.60
2022-11-15T10:45:39.503Z,29.80
2022-11-15T10:48:15.401Z,30.00
2022-11-15T10:50:45.445Z,30.10
2022-11-15T10:53:43.370Z,30.20
2022-11-15T10:56:16.616Z,30.40
2022-11-15T10:58:51.845Z,30.60
2022-11-15T11:01:25.318Z,30.70
2022-11-15T11:04:11.096Z,30.90
2022-11-15T11:06:58.228Z,31.10
2022-11-15T11:09:35.214Z,31.30
2022-11-15T11:12:06.787Z,31.50
2022-11-15T11:14:37.572Z,31.80
2022-11-15T11:17:49.362Z,31.90
2022-11-15T11:20:41.673Z,31.90
2022-11-15T11:23:39.233Z,31.80
2022-11-15T11:26:41.164Z,32.10
2022-11-15T11:29:50.820Z,32.10
2022-11-15T11:33:16.035Z,32.10
2022-11-15T11:36:16.526Z,32.10
2022-11-15T11:39:52.509Z,32.10
2022-11-15T11:42:47.353Z,32.00
2022-11-15T11:45:51.692Z,32.10
2022-11-15T11:48:30.773Z,32.00
2022-11-15T11:51:19.391Z,32.10
2022-11-15T11:53:55.750Z,32.10
2022-11-15T11:56:32.949Z,32.30
2022-11-15T11:59:25.380Z,32.40
2022-11-15T12:01:52.726Z,32.50
2022-11-15T12:04:28.595Z,32.50
2022-11-15T12:07:13.175Z,32.60
2022-11-15T12:10:00.085Z,32.70
2022-11-15T12:13:01.962Z,32.70
2022-11-15T12:15:57.019Z,32.80
2022-11-15T12:18:24.515Z,32.80
2022-11-15T12:21:15.917Z,32.80
2022-11-15T12:23:53.671Z,32.80
2022-11-15T12:26:34.319Z,32.90
2022-11-15T12:29:10.888Z,32.90
2022-11-15T12:31:57.455Z,32.80
2022-11-15T12:34:44.573Z,32.90
2022-11-15T12:37:39.406Z,32.90
2022-11-15T12:40:26.272Z,33.00
2022-11-15T12:43:00.375Z,33.00
2022-11-15T12:45:43.913Z,33.10
2022-11-15T12:48:16.852Z,33.20
2022-11-15T12:50:56.456Z,33.20
2022-11-15T12:53:26.434Z,33.30
2022-11-15T12:56:17.563Z,33.40
2022-11-15T12:59:03.199Z,33.40
2022-11-15T13:01:38.961Z,33.40
2022-11-15T13:04:28.017Z,33.30
2022-11-15T13:07:06.208Z,33.30
2022-11-15T13:09:33.036Z,33.10
2022-11-15T13:12:04.962Z,33.00
2022-11-15T13:14:38.169Z,32.90
2022-11-15T13:17:20.522Z,32.80
2022-11-15T13:19:55.014Z,32.80
2022-11-15T13:22:40.213Z,32.90
2022-11-15T13:25:35.640Z,32.90
2022-11-15T13:28:26.417Z,32.90
2022-11-15T13:31:17.016Z,32.90
2022-11-15T13:33:45.092Z,32.80
2022-11-15T13:36:26.363Z,32.70
2022-11-15T13:39:06.671Z,32.50
2022-11-15T13:41:37.317Z,32.40
2022-11-15T13:44:05.397Z,32.20
2022-11-15T13:46:34.612Z,32.00
2022-11-15T13:49:13.675Z,31.70
2022-11-15T13:51:52.202Z,31.40
2022-11-15T13:54:33.543Z,31.10
2022-11-15T13:57:06.814Z,30.80
2022-11-15T13:59:46.580Z,30.40
2022-11-15T14:02:35.703Z,30.00
2022-11-15T14:05:20.293Z,29.70
2022-11-15T14:08:13.587Z,29.20
2022-11-15T14:10:40.993Z,28.70
2022-11-15T14:13:29.378Z,28.30
2022-11-15T14:16:21.596Z,27.90
2022-11-15T14:18:53.716Z,27.30
2022-11-15T14:21:21.621Z,26.90
2022-11-15T14:23:50.166Z,26.40
2022-11-15T14:26:33.718Z,26.00
2022-11-15T14:29:26.679Z,25.50
2022-11-15T14:31:55.720Z,25.00
2022-11-15T14:34:23.175Z,24.60
2022-11-15T14:36:50.166Z,24.20
2022-11-15T14:39:17.259Z,23.80
2022-11-15T14:41:44.484Z,23.40
2022-11-15T14:44:13.246Z,23.10
2022-11-15T14:46:40.496Z,22.80
2022-11-15T14:49:07.369Z,22.40
2022-11-15T14:51:34.900Z,22.10
2022-11-15T14:54:01.987Z,21.70
2022-11-15T14:56:28.983Z,21.40
2022-11-15T14:58:56.256Z,21.10
2022-11-15T15:01:26.826Z,20.70
2022-11-15T15:03:59.126Z,20.40
2022-11-15T15:06:27.083Z,20.20
2022-11-15T15:08:54.338Z,19.90
2022-11-15T15:11:28.355Z,19.60
2022-11-15T15:13:57.948Z,19.30
2022-11-15T15:16:25.888Z,19.10
2022-11-15T15:18:53.394Z,19.00
2022-11-15T15:21:36.903Z,18.60
2022-11-15T15:24:05.267Z,18.30
2022-11-15T15:26:37.187Z,18.10
2022-11-15T15:29:04.673Z,18.10
2022-11-15T15:31:31.903Z,17.70
2022-11-15T15:33:58.850Z,17.50
2022-11-15T15:36:25.698Z,17.30
2022-11-15T15:38:53.554Z,17.20
2022-11-15T15:41:20.383Z,16.90
2022-11-15T15:43:48.350Z,16.90
2022-11-15T15:46:18.464Z,16.40
2022-11-15T15:48:46.471Z,16.50
2022-11-15T15:51:19.940Z,16.30
2022-11-15T15:53:49.312Z,16.10
2022-11-15T15:56:16.169Z,16.00
2022-11-15T15:58:43.072Z,15.80
2022-11-15T16:01:10.082Z,15.70
2022-11-15T16:03:37.153Z,15.60
2022-11-15T16:06:05.287Z,15.50
2022-11-15T16:08:42.843Z,15.40
2022-11-15T16:11:15.072Z,15.30
2022-11-15T16:13:42.041Z,15.10
2022-11-15T16:16:13.868Z,15.00
2022-11-15T16:18:41.464Z,14.90
2022-11-15T16:21:09.739Z,14.80
2022-11-15T16:23:36.674Z,14.70
2022-11-15T16:26:13.679Z,14.60
2022-11-15T16:28:40.616Z,14.50
2022-11-15T16:31:11.663Z,14.40
2022-11-15T16:33:40.144Z,14.30
2022-11-15T16:36:19.168Z,14.20
2022-11-15T16:38:47.063Z,14.10
2022-11-15T16:41:14.031Z,14.00
2022-11-15T16:43:40.952Z,13.90
2022-11-15T16:46:16.677Z,13.80
2022-11-15T16:48:43.982Z,13.70
2022-11-15T16:51:11.024Z,13.70
2022-11-15T16:53:38.223Z,13.60
2022-11-15T16:56:18.620Z,13.50
2022-11-15T16:58:45.922Z,13.40
2022-11-15T17:01:25.902Z,13.30
2022-11-15T17:03:53.657Z,13.20
2022-11-15T17:06:24.799Z,13.20
2022-11-15T17:08:52.215Z,13.10
2022-11-15T17:11:22.828Z,13.00
2022-11-15T17:13:49.894Z,12.90
2022-11-15T17:16:18.676Z,12.80
2022-11-15T17:18:45.767Z,12.80
2022-11-15T17:21:18.828Z,12.90
2022-11-15T17:23:46.683Z,12.60
2022-11-15T17:26:29.705Z,12.50
2022-11-15T17:29:01.014Z,12.50
2022-11-15T17:31:30.116Z,12.40
2022-11-15T17:33:57.025Z,12.30
2022-11-15T17:36:24.677Z,12.30
2022-11-15T17:38:58.123Z,12.20
2022-11-15T17:41:27.493Z,12.10
2022-11-15T17:43:58.213Z,12.10
2022-11-15T17:46:25.689Z,12.00
2022-11-15T17:48:52.785Z,12.00
2022-11-15T17:51:19.811Z,11.90
2022-11-15T17:53:49.154Z,12.00
2022-11-15T17:56:24.042Z,11.80
2022-11-15T17:58:56.578Z,11.80
2022-11-15T18:01:32.708Z,11.70
2022-11-15T18:04:02.063Z,11.60
2022-11-15T18:06:31.935Z,11.60
2022-11-15T18:08:59.704Z,11.60
2022-11-15T18:11:30.535Z,11.50
2022-11-15T18:14:07.056Z,11.50
2022-11-15T18:16:35.723Z,11.40
2022-11-15T18:19:09.000Z,11.40
2022-11-15T18:21:56.138Z,11.40
2022-11-15T18:24:35.214Z,11.30
2022-11-15T18:27:04.779Z,11.30
2022-11-15T18:29:34.594Z,11.20
2022-11-15T18:32:05.309Z,11.20
2022-11-15T18:34:34.060Z,11.10
2022-11-15T18:37:02.785Z,11.10
2022-11-15T18:39:30.624Z,11.00
2022-11-15T18:41:58.039Z,11.00
2022-11-15T18:44:25.299Z,11.00
2022-11-15T18:46:52.229Z,10.90
2022-11-15T18:49:20.257Z,10.90
2022-11-15T18:51:47.589Z,10.90
2022-11-15T18:54:17.138Z,10.80
2022-11-15T18:56:45.770Z,10.80
2022-11-15T18:59:13.372Z,10.80
2022-11-15T19:01:48.529Z,10.80
2022-11-15T19:04:19.600Z,10.70
2022-11-15T19:06:49.442Z,10.80
2022-11-15T19:09:18.961Z,10.80
2022-11-15T19:11:48.321Z,10.80
2022-11-15T19:14:18.277Z,10.90
2022-11-15T19:16:52.355Z,10.90
2022-11-15T19:19:28.943Z,10.90
2022-11-15T19:21:57.478Z,11.00
2022-11-15T19:24:26.998Z,11.00
2022-11-15T19:26:55.070Z,11.00
2022-11-15T19:29:22.212Z,11.00
2022-11-15T19:31:49.427Z,11.10
2022-11-15T19:34:16.632Z,11.10
2022-11-15T19:36:45.286Z,11.10
2022-11-15T19:39:14.625Z,11.10
2022-11-15T19:41:44.239Z,11.10
2022-11-15T19:44:13.046Z,11.20
2022-11-15T19:46:41.161Z,11.10
2022-11-15T19:49:10.811Z,11.20
2022-11-15T19:51:41.390Z,11.20
2022-11-15T19:54:09.758Z,11.20
2022-11-15T19:56:38.095Z,11.20
2022-11-15T19:59:05.515Z,11.20
2022-11-15T20:01:39.738Z,11.20
2022-11-15T20:04:09.948Z,11.20
2022-11-15T20:06:41.536Z,11.20
2022-11-15T20:09:13.091Z,11.30
2022-11-15T20:11:40.014Z,11.20
2022-11-15T20:14:09.448Z,11.20
2022-11-15T20:16:36.603Z,11.20
2022-11-15T20:19:03.887Z,11.30
2022-11-15T20:21:31.889Z,11.20
2022-11-15T20:23:58.990Z,11.20
2022-11-15T20:26:26.019Z,11.20
2022-11-15T20:28:53.068Z,11.20
2022-11-15T20:31:20.103Z,11.20
2022-11-15T20:33:47.062Z,11.20
2022-11-15T20:36:16.017Z,11.20
2022-11-15T20:38:44.592Z,11.20
2022-11-15T20:41:15.258Z,11.20
2022-11-15T20:43:43.971Z,11.30
2022-11-15T20:46:12.558Z,11.20
2022-11-15T20:48:40.621Z,11.20
2022-11-15T20:51:17.868Z,11.20
2022-11-15T20:53:46.728Z,11.20
2022-11-15T20:56:21.099Z,11.20
2022-11-15T20:58:50.526Z,11.20
2022-11-15T21:01:24.601Z,11.20
2022-11-15T21:03:54.410Z,11.20
2022-11-15T21:06:22.475Z,11.20
2022-11-15T21:09:09.728Z,11.20
2022-11-15T21:11:56.162Z,11.20
2022-11-15T21:14:23.228Z,11.20
2022-11-15T21:16:50.286Z,11.20
2022-11-15T21:19:17.394Z,11.20
2022-11-15T21:21:45.677Z,11.20
2022-11-15T21:24:12.791Z,11.20
2022-11-15T21:26:39.670Z,11.20
2022-11-15T21:29:06.819Z,11.20
2022-11-15T21:31:34.554Z,11.20
2022-11-15T21:34:02.665Z,11.20
2022-11-15T21:36:30.218Z,11.20
2022-11-15T21:38:57.194Z,11.20
2022-11-15T21:41:24.068Z,11.20
2022-11-15T21:43:51.616Z,11.20
2022-11-15T21:46:18.471Z,11.20
2022-11-15T21:48:45.823Z,11.20
2022-11-15T21:51:12.874Z,11.20
2022-11-15T21:53:40.007Z,11.20
2022-11-15T21:56:07.865Z,11.10
2022-11-15T21:58:35.928Z,11.20
2022-11-15T22:01:22.042Z,11.10
2022-11-15T22:03:49.263Z,11.10
2022-11-15T22:06:18.278Z,11.10
2022-11-15T22:08:46.540Z,11.10
2022-11-15T22:11:14.998Z,11.10
2022-11-15T22:13:42.430Z,11.10
2022-11-15T22:16:10.412Z,11.10
2022-11-15T22:18:39.024Z,11.00
2022-11-15T22:21:12.391Z,11.00
2022-11-15T22:23:40.887Z,10.90
2022-11-15T22:26:12.025Z,11.00
2022-11-15T22:28:39.270Z,10.80
2022-11-15T22:31:06.290Z,10.90
2022-11-15T22:33:35.080Z,10.90
2022-11-15T22:36:03.902Z,10.90
2022-11-15T22:38:32.109Z,10.90
2022-11-15T22:40:59.717Z,10.90
2022-11-15T22:43:28.330Z,10.90
2022-11-15T22:45:58.379Z,10.90
2022-11-15T22:48:37.272Z,10.90
2022-11-15T22:51:06.455Z,11.00
2022-11-15T22:53:33.555Z,10.80
2022-11-15T22:56:04.140Z,10.80
2022-11-15T22:58:33.549Z,10.70
2022-11-15T23:01:04.809Z,10.80
2022-11-15T23:03:34.059Z,10.70
2022-11-15T23:06:06.263Z,10.80
2022-11-15T23:08:34.226Z,10.80
2022-11-15T23:11:22.261Z,10.80
2022-11-15T23:13:53.112Z,10.80
2022-11-15T23:16:23.835Z,10.70
2022-11-15T23:18:54.772Z,10.80
2022-11-15T23:21:47.324Z,10.80
2022-11-15T23:24:15.483Z,10.80
2022-11-15T23:26:43.264Z,10.80
2022-11-15T23:29:13.608Z,10.80
2022-11-15T23:32:02.362Z,10.80
2022-11-15T23:34:37.061Z,10.80
2022-11-15T23:37:05.346Z,10.70
2022-11-15T23:39:32.681Z,10.70
2022-11-15T23:42:04.429Z,10.70
2022-11-15T23:44:34.974Z,10.70
2022-11-15T23:47:01.873Z,10.80
2022-11-15T23:49:29.379Z,10.70
2022-11-15T23:51:56.719Z,10.70
2022-11-15T23:54:23.700Z,10.60
2022-11-15T23:56:50.578Z,10.50
2022-11-15T23:59:18.019Z,10.60
